Titus, Alabama
Current Conditions -  °F | °C
As of 5:55 PM on Friday 28 Nov 2014 (Local Time) from K1A9 Reporting Station
Clear Clear  
Wind Chill: 41°   Ceiling: Unl
Heat Index: 41°   Visibility: 10mi
Dew Point: 27°   Wind: 0mph
Humidity: 58%   Direction: NA
Pressure: 30.29"   Gusts: NA
Location:  32.71°N, 86.32°W
Report Text: K1A9 282355Z AUTO 00000KT 10SM CLR 05/M03 A3029 RMK AO2 T00481029 10125 20048
Loading
Personal Weather Stations






























Interactive Weather Map New forecast layout! Learn more

10-Day Weather Forecast

Advertisements
Track Severe Weather on mobile